Estación de San Julian

Ultimos registro cada 15 minutos 79
Estación Fecha / Hora Temperatura Humedad Lluvia Velocidad Dirección Radiación Presion
79 San Julian 07-05-2026 19:30 13,2 67,5 0 0 241 0,6 986,5
78 San Julian 07-05-2026 19:15 13,4 66,3 0 0 237 0,6 986,4
77 San Julian 07-05-2026 19:00 14 64,4 0 0 241 0,6 986,5
76 San Julian 07-05-2026 18:45 14,4 62,7 0 0 237 0,6 986,5
75 San Julian 07-05-2026 18:30 15 58,7 0 0 239 0,6 986,5
74 San Julian 07-05-2026 18:15 15,9 54,2 0 0 244 0,6 986,4
73 San Julian 07-05-2026 18:00 16,6 52,9 0 0 241 4,4 986,4
72 San Julian 07-05-2026 17:45 17,2 52,3 0 0 229 9,4 986,4
71 San Julian 07-05-2026 17:30 18 50,9 0 0 236 15,6 986,4
70 San Julian 07-05-2026 17:15 18,8 49,7 0 0 240 119,4 985,9
69 San Julian 07-05-2026 17:00 20,7 44,2 0 0 237 155,6 986,3
68 San Julian 07-05-2026 16:45 22,8 34 0 0 237 190,6 986,1
67 San Julian 07-05-2026 16:30 23,1 32,5 0 0 220 228,1 985,9
66 San Julian 07-05-2026 16:15 24,5 22,1 0 0 215 265,6 985,7
65 San Julian 07-05-2026 16:00 24,7 27,7 0 0 215 301,9 985,8
64 San Julian 07-05-2026 15:45 24,3 29,5 0 0 215 336,9 985,8
63 San Julian 07-05-2026 15:30 25,7 26,6 0 0 212 371,9 985,7
62 San Julian 07-05-2026 15:15 25,4 25,4 0 0 204 400,6 985,8
61 San Julian 07-05-2026 15:00 25,5 27,8 0 0 218 429,4 985,7
60 San Julian 07-05-2026 14:45 24,5 34,8 0 0 234 453,1 986
59 San Julian 07-05-2026 14:30 24,6 36,7 0 0 232 473,1 986,2
58 San Julian 07-05-2026 14:15 24 38,2 0 0 237 496,9 986,4
57 San Julian 07-05-2026 14:00 24 39,3 0 0 239 508,1 986,6
56 San Julian 07-05-2026 13:45 24 37,8 0 0 233 525,6 986,9
55 San Julian 07-05-2026 13:30 24,8 39,1 0 0 233 535,6 987
54 San Julian 07-05-2026 13:15 23,4 40,9 0 0 237 544,4 987,4
53 San Julian 07-05-2026 13:00 22,7 40,3 0 0 230 554,4 987,8
52 San Julian 07-05-2026 12:45 22,3 41,4 0 0 227 553,1 988
51 San Julian 07-05-2026 12:30 21,9 43,5 0 0 232 555,6 988,3
50 San Julian 07-05-2026 12:15 22 43,6 0 0 222 546,9 988,6
49 San Julian 07-05-2026 12:00 21,8 48,7 0 0 229 536,9 988,7
48 San Julian 07-05-2026 11:45 21,4 48,8 0 0 230 525,6 988,9
47 San Julian 07-05-2026 11:30 21 53 0 0 256 508,1 989,2
46 San Julian 07-05-2026 11:15 19,9 56,7 0 0 239 488,1 989,4
45 San Julian 07-05-2026 11:00 19,4 60,6 0 0 232 465,6 989,7
44 San Julian 07-05-2026 10:45 19 63,9 0 0 225 439,4 990,1
43 San Julian 07-05-2026 10:30 18,1 66,4 0 0 227 410,6 990,2
42 San Julian 07-05-2026 10:15 18 64,5 0 0 265 381,9 990,4
41 San Julian 07-05-2026 10:00 16,2 69,4 0 0 265 350,6 990,4
40 San Julian 07-05-2026 09:45 15,2 72 0 0 270 318,1 990,4
39 San Julian 07-05-2026 09:30 14,6 74,5 0 0 270 283,1 990,4
38 San Julian 07-05-2026 09:15 13,9 76,3 0 0 268 248,1 990,4
37 San Julian 07-05-2026 09:00 15 75,3 0 0 265 109,4 990,6
36 San Julian 07-05-2026 08:45 12,3 81,8 0 0 264 136,9 990,4
35 San Julian 07-05-2026 08:30 12,7 81,7 0 0 260 139,4 990,4
34 San Julian 07-05-2026 08:15 12,6 84,1 0 0 257 110,6 990,4
33 San Julian 07-05-2026 08:00 10,9 88,9 0 0 254 61,9 990,5
32 San Julian 07-05-2026 07:45 10,4 88,9 0 0 244 16,9 990,4
31 San Julian 07-05-2026 07:30 10,5 89,2 0 0 244 4,4 990,3
30 San Julian 07-05-2026 07:15 10,8 89,5 0 0 244 0,6 990,2
29 San Julian 07-05-2026 07:00 10,5 89,3 0 0 244 0,6 990,4
28 San Julian 07-05-2026 06:45 10,3 88,9 0 0 244 0,6 990
27 San Julian 07-05-2026 06:30 10,4 88,9 0 0 237 0,6 989,9
26 San Julian 07-05-2026 06:15 10,9 87,7 0 0 237 0,6 989,7
25 San Julian 07-05-2026 06:00 11,5 86,9 0 0 239 0,6 989,6
24 San Julian 07-05-2026 05:45 11,9 86,4 0 0 240 0,6 989,4
23 San Julian 07-05-2026 05:30 12,3 86,3 0 0 227 0,6 989,4
22 San Julian 07-05-2026 05:15 12,5 86,2 0 0 237 0,6 989,3
21 San Julian 07-05-2026 05:00 12,5 85,3 0 0 239 0,6 989,4
20 San Julian 07-05-2026 04:45 12,6 85,1 0 0 241 0,6 989,3
19 San Julian 07-05-2026 04:30 12,6 84,2 0 0 237 0,6 989,2
18 San Julian 07-05-2026 04:15 12,7 83,6 0 0 241 0,6 989
17 San Julian 07-05-2026 04:00 12,8 85,7 0 0 240 0,6 988,9
16 San Julian 07-05-2026 03:45 12,9 86,7 0 0 240 0,6 989
15 San Julian 07-05-2026 03:30 12,9 88,8 0 0 240 0,6 989,2
14 San Julian 07-05-2026 03:15 13 90,6 0 0 240 0,6 988,8
13 San Julian 07-05-2026 03:00 13 92,5 0 0 237 0,6 989
12 San Julian 07-05-2026 02:45 13,3 93,7 0 0 237 0,6 989
11 San Julian 07-05-2026 02:30 13,3 94,1 0 0 237 0,6 989,2
10 San Julian 07-05-2026 02:15 13,5 93,7 0 0 236 0,6 989,1
9 San Julian 07-05-2026 02:00 13,6 94,4 0 0 237 0,6 989,1
8 San Julian 07-05-2026 01:45 13,6 95,3 0 0 237 0,6 989
7 San Julian 07-05-2026 01:30 13,3 96 0 0 237 0,6 989,1
6 San Julian 07-05-2026 01:15 13,1 95,8 0 0 229 0,6 989,1
5 San Julian 07-05-2026 01:00 13,2 95,2 0 0 229 0,6 989
4 San Julian 07-05-2026 00:45 13,4 95 0 0 229 0,6 989
3 San Julian 07-05-2026 00:30 13,6 95 0 0 229 0,6 989,2
2 San Julian 07-05-2026 00:15 13,6 94,9 0 0 232 0,6 989
1 San Julian 07-05-2026 00:00 13,7 95 0 0 239 0,6 989,2